Wetterdaten: aktuell Mittwoch, 18.09.2019 22:15
Datum Zeit Temp. I. Temp. A. Feuchte I. Feuchte A. Luftdruck Regen Wind Richtung Richtung Taupunkt Windchill Windben Empfang
18.09.2019 22:15 23,6 C 8,2 C 45 % 74 % 1023,4 hPa 0,0 l/m 0,0 km/h N 0 3,8 C 8,2 C 0,0 km/h 73,68 %
18.09.2019 21:15 23,7 C 9,9 C 45 % 65 % 1023,1 hPa 0,0 l/m 0,0 km/h N 0 3,6 C 9,9 C 0,0 km/h 73,68 %
18.09.2019 20:15 23,8 C 11,4 C 45 % 57 % 1022,5 hPa 0,0 l/m 0,0 km/h N 0 3,2 C 11,4 C 0,0 km/h 71,05 %
18.09.2019 19:15 24,2 C 14,1 C 44 % 47 % 1021,6 hPa 0,0 l/m 0,0 km/h N 0 3,0 C 14,1 C 0,0 km/h 74,56 %
18.09.2019 18:15 24,1 C 16,3 C 44 % 37 % 1021,2 hPa 0,0 l/m 0,0 km/h N 360 1,6 C 16,3 C 6,4 km/h 74,56 %
18.09.2019 17:15 24,3 C 17,3 C 43 % 34 % 1021,0 hPa 0,0 l/m 0,0 km/h O-NO 67 1,3 C 17,3 C 14,5 km/h 76,32 %
18.09.2019 16:15 24,1 C 17,9 C 43 % 30 % 1021,3 hPa 0,0 l/m 0,0 km/h N 360 0,1 C 17,9 C 8,0 km/h 75,44 %
18.09.2019 15:15 23,6 C 18,9 C 39 % 33 % 1021,8 hPa 0,0 l/m 0,0 km/h W-NW 292 2,3 C 18,9 C 1,6 km/h 73,68 %
18.09.2019 14:15 23,9 C 18,1 C 42 % 35 % 1022,3 hPa 0,0 l/m 0,0 km/h NO 45 2,4 C 18,1 C 6,4 km/h 74,56 %
18.09.2019 13:15 24,1 C 17,4 C 48 % 37 % 1022,8 hPa 0,0 l/m 1,6 km/h N 360 2,6 C 17,4 C 12,9 km/h 75,44 %
18.09.2019 12:15 24,2 C 16,3 C 49 % 43 % 1022,9 hPa 0,0 l/m 1,6 km/h N 360 3,7 C 16,3 C 12,9 km/h 76,32 %
18.09.2019 11:15 24,3 C 15,4 C 49 % 46 % 1023,2 hPa 0,0 l/m 1,6 km/h N 360 3,8 C 15,4 C 11,3 km/h 73,68 %
18.09.2019 10:15 24,2 C 14,3 C 49 % 54 % 1023,1 hPa 0,0 l/m 0,0 km/h NW 315 5,1 C 14,3 C 3,2 km/h 73,68 %
18.09.2019 09:15 23,9 C 13,3 C 49 % 61 % 1022,8 hPa 0,0 l/m 0,0 km/h N 360 5,9 C 13,3 C 6,4 km/h 75,44 %
18.09.2019 08:15 23,7 C 12,4 C 48 % 64 % 1021,9 hPa 0,0 l/m 0,0 km/h N 0 5,8 C 12,4 C 0,0 km/h 73,68 %
18.09.2019 07:15 23,7 C 10,4 C 48 % 68 % 1021,3 hPa 0,0 l/m 0,0 km/h N 0 4,8 C 10,4 C 0,0 km/h 74,56 %
18.09.2019 06:15 23,7 C 11,3 C 48 % 63 % 1020,4 hPa 0,0 l/m 0,0 km/h O-NO 67 4,5 C 11,3 C 1,6 km/h 74,56 %
18.09.2019 05:15 23,8 C 12,3 C 49 % 59 % 1019,3 hPa 0,0 l/m 0,0 km/h NO 45 4,5 C 12,3 C 6,4 km/h 73,68 %
18.09.2019 04:15 23,8 C 13,1 C 50 % 56 % 1018,6 hPa 0,0 l/m 0,0 km/h N-NO 22 4,5 C 13,1 C 9,7 km/h 73,68 %
18.09.2019 03:15 23,9 C 13,9 C 51 % 68 % 1017,7 hPa 0,0 l/m 0,0 km/h N-NO 22 8,1 C 13,9 C 4,8 km/h 75,44 %
18.09.2019 02:15 24,1 C 14,9 C 51 % 67 % 1017,3 hPa 0,0 l/m 0,0 km/h N-NO 22 8,8 C 14,9 C 1,6 km/h 75,44 %
18.09.2019 01:15 24,1 C 16,0 C 51 % 71 % 1016,5 hPa 0,0 l/m 0,0 km/h N 0 10,7 C 16,0 C 0,0 km/h 76,32 %
18.09.2019 00:15 24,2 C 16,4 C 51 % 69 % 1015,8 hPa 0,0 l/m 0,0 km/h N 0 10,7 C 16,4 C 0,0 km/h 74,56 %
18.09.2019 00:00 24,2 C 16,4 C 51 % 69 % 1015,8 hPa 0,0 l/m 0,0 km/h S-SO 157 10,7 C 16,4 C 1,6 km/h 73,68 %
_ Min-Zeit 15:05 22:15 14:55 16:00 00:15 - 22:15 - - 16:25 22:15 22:15 04:10
Minimum _ 23,4 C 8,2 C 33 % 29 % 1015,8 hPa - 0,0 km/h - - 0,0 C 8,2 C 0,0 km/h 56,14 %
_ Max-Zeit 19:05 15:00 03:30 22:15 22:15 22:15 04:20 - - 00:35 15:05 13:25 15:00
Maximum _ 24,4 C 19,4 C 51 % 74 % 1023,4 hPa 0,0 l/m 4,8 km/h
N
- - 10,8 C 19,3 C 20,9 km/h
N-NO
77,19 %
Durchschnitt _ 24,0 C 14,5 C 47 % 53 % 1021,0 hPa #0,0 l/m 0,2 km/h N - 4,6 C 14,5 C 5,1 km/h 74,23 %